sensor_id;sensor_type;location;lat;lon;timestamp;P1;durP1;ratioP1;P2;durP2;ratioP2
46318;SDS011;32042;50.916;2.926;2023-04-24T00:01:28;4.83;;;4.43;;
46318;SDS011;32042;50.916;2.926;2023-04-24T00:03:54;4.67;;;4.27;;
46318;SDS011;32042;50.916;2.926;2023-04-24T00:06:25;5.17;;;4.60;;
46318;SDS011;32042;50.916;2.926;2023-04-24T00:08:58;4.97;;;4.53;;
46318;SDS011;32042;50.916;2.926;2023-04-24T00:11:27;5.50;;;4.13;;
46318;SDS011;32042;50.916;2.926;2023-04-24T00:13:53;5.77;;;4.57;;
46318;SDS011;32042;50.916;2.926;2023-04-24T00:16:19;5.90;;;5.40;;
46318;SDS011;32042;50.916;2.926;2023-04-24T00:18:45;6.87;;;5.03;;
46318;SDS011;32042;50.916;2.926;2023-04-24T00:21:12;8.30;;;5.53;;
46318;SDS011;32042;50.916;2.926;2023-04-24T00:23:38;6.57;;;5.97;;
46318;SDS011;32042;50.916;2.926;2023-04-24T00:26:04;6.47;;;5.80;;
46318;SDS011;32042;50.916;2.926;2023-04-24T00:28:30;7.83;;;6.50;;
46318;SDS011;32042;50.916;2.926;2023-04-24T00:30:55;8.30;;;7.50;;
46318;SDS011;32042;50.916;2.926;2023-04-24T00:33:21;10.47;;;8.37;;
46318;SDS011;32042;50.916;2.926;2023-04-24T00:35:47;10.37;;;9.37;;
46318;SDS011;32042;50.916;2.926;2023-04-24T00:38:13;10.67;;;8.63;;
46318;SDS011;32042;50.916;2.926;2023-04-24T00:40:38;10.57;;;9.53;;
46318;SDS011;32042;50.916;2.926;2023-04-24T00:43:04;9.47;;;8.63;;
46318;SDS011;32042;50.916;2.926;2023-04-24T00:45:30;10.40;;;9.50;;
46318;SDS011;32042;50.916;2.926;2023-04-24T00:47:56;9.77;;;8.90;;
46318;SDS011;32042;50.916;2.926;2023-04-24T00:50:23;10.00;;;9.03;;
46318;SDS011;32042;50.916;2.926;2023-04-24T00:52:50;11.30;;;10.30;;
46318;SDS011;32042;50.916;2.926;2023-04-24T00:55:16;11.53;;;10.43;;
46318;SDS011;32042;50.916;2.926;2023-04-24T00:57:42;12.60;;;9.93;;
46318;SDS011;32042;50.916;2.926;2023-04-24T01:00:09;11.50;;;10.37;;
46318;SDS011;32042;50.916;2.926;2023-04-24T01:02:36;11.63;;;9.23;;
46318;SDS011;32042;50.916;2.926;2023-04-24T01:05:05;11.97;;;10.77;;
46318;SDS011;32042;50.916;2.926;2023-04-24T01:07:33;11.77;;;10.53;;
46318;SDS011;32042;50.916;2.926;2023-04-24T01:09:59;12.60;;;10.27;;
46318;SDS011;32042;50.916;2.926;2023-04-24T01:12:25;13.03;;;11.83;;
46318;SDS011;32042;50.916;2.926;2023-04-24T01:14:51;14.17;;;12.87;;
46318;SDS011;32042;50.916;2.926;2023-04-24T01:17:17;16.73;;;13.73;;
46318;SDS011;32042;50.916;2.926;2023-04-24T01:19:42;16.47;;;12.60;;
46318;SDS011;32042;50.916;2.926;2023-04-24T01:22:12;14.37;;;12.87;;
46318;SDS011;32042;50.916;2.926;2023-04-24T01:24:39;14.83;;;13.53;;
46318;SDS011;32042;50.916;2.926;2023-04-24T01:27:06;15.93;;;14.23;;
46318;SDS011;32042;50.916;2.926;2023-04-24T01:29:32;14.63;;;12.63;;
46318;SDS011;32042;50.916;2.926;2023-04-24T01:31:58;15.30;;;13.77;;
46318;SDS011;32042;50.916;2.926;2023-04-24T01:34:25;17.83;;;14.00;;
46318;SDS011;32042;50.916;2.926;2023-04-24T01:36:51;15.80;;;11.20;;
46318;SDS011;32042;50.916;2.926;2023-04-24T01:39:17;13.00;;;10.40;;
46318;SDS011;32042;50.916;2.926;2023-04-24T01:41:45;16.13;;;11.67;;
46318;SDS011;32042;50.916;2.926;2023-04-24T01:44:11;18.07;;;11.47;;
46318;SDS011;32042;50.916;2.926;2023-04-24T01:46:37;13.53;;;10.17;;
46318;SDS011;32042;50.916;2.926;2023-04-24T01:49:03;16.17;;;10.40;;
46318;SDS011;32042;50.916;2.926;2023-04-24T01:51:29;13.93;;;9.73;;
46318;SDS011;32042;50.916;2.926;2023-04-24T01:53:55;13.70;;;9.30;;
46318;SDS011;32042;50.916;2.926;2023-04-24T01:56:21;12.57;;;8.77;;
46318;SDS011;32042;50.916;2.926;2023-04-24T01:58:48;12.10;;;9.17;;
46318;SDS011;32042;50.916;2.926;2023-04-24T02:01:18;12.27;;;9.00;;
46318;SDS011;32042;50.916;2.926;2023-04-24T02:03:45;14.10;;;9.33;;
46318;SDS011;32042;50.916;2.926;2023-04-24T02:06:10;15.80;;;9.77;;
46318;SDS011;32042;50.916;2.926;2023-04-24T02:08:36;16.43;;;11.17;;
46318;SDS011;32042;50.916;2.926;2023-04-24T02:11:02;16.20;;;12.80;;
46318;SDS011;32042;50.916;2.926;2023-04-24T02:13:28;18.37;;;11.30;;
46318;SDS011;32042;50.916;2.926;2023-04-24T02:15:53;15.47;;;12.10;;
46318;SDS011;32042;50.916;2.926;2023-04-24T02:18:19;19.27;;;13.30;;
46318;SDS011;32042;50.916;2.926;2023-04-24T02:20:45;20.90;;;14.03;;
46318;SDS011;32042;50.916;2.926;2023-04-24T02:23:11;24.37;;;15.67;;
46318;SDS011;32042;50.916;2.926;2023-04-24T02:25:38;24.23;;;15.07;;
46318;SDS011;32042;50.916;2.926;2023-04-24T02:28:04;19.37;;;13.87;;
46318;SDS011;32042;50.916;2.926;2023-04-24T02:30:30;23.33;;;13.87;;
46318;SDS011;32042;50.916;2.926;2023-04-24T02:32:56;16.57;;;14.13;;
46318;SDS011;32042;50.916;2.926;2023-04-24T02:35:23;22.80;;;15.20;;
46318;SDS011;32042;50.916;2.926;2023-04-24T02:37:50;26.47;;;14.20;;
46318;SDS011;32042;50.916;2.926;2023-04-24T02:40:17;20.13;;;14.57;;
46318;SDS011;32042;50.916;2.926;2023-04-24T02:42:43;22.37;;;14.77;;
46318;SDS011;32042;50.916;2.926;2023-04-24T02:45:10;18.40;;;13.30;;
46318;SDS011;32042;50.916;2.926;2023-04-24T02:47:38;25.37;;;14.77;;
46318;SDS011;32042;50.916;2.926;2023-04-24T02:50:04;25.53;;;14.80;;
46318;SDS011;32042;50.916;2.926;2023-04-24T02:52:32;25.37;;;17.23;;
46318;SDS011;32042;50.916;2.926;2023-04-24T02:54:58;24.47;;;13.13;;
46318;SDS011;32042;50.916;2.926;2023-04-24T02:57:24;20.67;;;12.90;;
46318;SDS011;32042;50.916;2.926;2023-04-24T02:59:50;20.37;;;13.47;;
46318;SDS011;32042;50.916;2.926;2023-04-24T03:02:15;20.80;;;13.07;;
46318;SDS011;32042;50.916;2.926;2023-04-24T03:04:41;25.07;;;11.77;;
46318;SDS011;32042;50.916;2.926;2023-04-24T03:07:08;22.27;;;11.60;;
46318;SDS011;32042;50.916;2.926;2023-04-24T03:09:33;18.90;;;11.73;;
46318;SDS011;32042;50.916;2.926;2023-04-24T03:11:59;22.83;;;11.70;;
46318;SDS011;32042;50.916;2.926;2023-04-24T03:14:25;22.10;;;12.07;;
46318;SDS011;32042;50.916;2.926;2023-04-24T03:16:51;21.50;;;13.10;;
46318;SDS011;32042;50.916;2.926;2023-04-24T03:19:16;20.00;;;11.40;;
46318;SDS011;32042;50.916;2.926;2023-04-24T03:21:42;17.97;;;11.87;;
46318;SDS011;32042;50.916;2.926;2023-04-24T03:24:08;17.93;;;11.33;;
46318;SDS011;32042;50.916;2.926;2023-04-24T03:26:34;21.77;;;12.33;;
46318;SDS011;32042;50.916;2.926;2023-04-24T03:29:00;17.57;;;11.33;;
46318;SDS011;32042;50.916;2.926;2023-04-24T03:31:26;23.77;;;12.73;;
46318;SDS011;32042;50.916;2.926;2023-04-24T03:33:52;18.73;;;11.47;;
46318;SDS011;32042;50.916;2.926;2023-04-24T03:36:17;16.27;;;11.93;;
46318;SDS011;32042;50.916;2.926;2023-04-24T03:38:44;21.73;;;12.20;;
46318;SDS011;32042;50.916;2.926;2023-04-24T03:41:10;21.53;;;11.17;;
46318;SDS011;32042;50.916;2.926;2023-04-24T03:43:37;19.73;;;11.60;;
46318;SDS011;32042;50.916;2.926;2023-04-24T03:46:03;18.53;;;11.53;;
46318;SDS011;32042;50.916;2.926;2023-04-24T03:48:29;16.20;;;12.00;;
46318;SDS011;32042;50.916;2.926;2023-04-24T03:50:54;15.43;;;11.13;;
46318;SDS011;32042;50.916;2.926;2023-04-24T03:53:20;17.57;;;11.23;;
46318;SDS011;32042;50.916;2.926;2023-04-24T03:55:46;16.27;;;11.60;;
46318;SDS011;32042;50.916;2.926;2023-04-24T03:58:12;15.97;;;11.23;;
46318;SDS011;32042;50.916;2.926;2023-04-24T04:00:39;22.40;;;11.80;;
46318;SDS011;32042;50.916;2.926;2023-04-24T04:03:05;14.47;;;10.70;;
46318;SDS011;32042;50.916;2.926;2023-04-24T04:05:31;13.43;;;10.67;;
46318;SDS011;32042;50.916;2.926;2023-04-24T04:07:57;18.97;;;11.03;;
46318;SDS011;32042;50.916;2.926;2023-04-24T04:10:23;16.97;;;10.53;;
46318;SDS011;32042;50.916;2.926;2023-04-24T04:12:48;18.73;;;10.40;;
46318;SDS011;32042;50.916;2.926;2023-04-24T04:15:14;14.50;;;9.87;;
46318;SDS011;32042;50.916;2.926;2023-04-24T04:17:40;16.23;;;11.20;;
46318;SDS011;32042;50.916;2.926;2023-04-24T04:20:06;17.70;;;10.30;;
46318;SDS011;32042;50.916;2.926;2023-04-24T04:22:35;20.07;;;11.07;;
46318;SDS011;32042;50.916;2.926;2023-04-24T04:25:01;16.90;;;10.93;;
46318;SDS011;32042;50.916;2.926;2023-04-24T04:27:28;13.73;;;10.50;;
46318;SDS011;32042;50.916;2.926;2023-04-24T04:29:57;17.87;;;12.00;;
46318;SDS011;32042;50.916;2.926;2023-04-24T04:32:24;19.60;;;10.53;;
46318;SDS011;32042;50.916;2.926;2023-04-24T04:34:51;17.57;;;11.63;;
46318;SDS011;32042;50.916;2.926;2023-04-24T04:37:18;17.20;;;11.33;;
46318;SDS011;32042;50.916;2.926;2023-04-24T04:39:44;17.47;;;11.20;;
46318;SDS011;32042;50.916;2.926;2023-04-24T04:42:10;18.67;;;10.83;;
46318;SDS011;32042;50.916;2.926;2023-04-24T04:44:35;15.37;;;11.60;;
46318;SDS011;32042;50.916;2.926;2023-04-24T04:47:01;20.53;;;11.90;;
46318;SDS011;32042;50.916;2.926;2023-04-24T04:49:30;16.93;;;12.00;;
46318;SDS011;32042;50.916;2.926;2023-04-24T04:51:59;16.33;;;10.90;;
46318;SDS011;32042;50.916;2.926;2023-04-24T04:54:25;23.07;;;11.87;;
46318;SDS011;32042;50.916;2.926;2023-04-24T04:56:51;16.63;;;11.53;;
46318;SDS011;32042;50.916;2.926;2023-04-24T04:59:17;18.80;;;13.50;;
46318;SDS011;32042;50.916;2.926;2023-04-24T05:01:42;20.67;;;12.60;;
46318;SDS011;32042;50.916;2.926;2023-04-24T05:04:08;16.53;;;12.70;;
46318;SDS011;32042;50.916;2.926;2023-04-24T05:06:34;21.80;;;13.27;;
46318;SDS011;32042;50.916;2.926;2023-04-24T05:09:00;18.60;;;13.60;;
46318;SDS011;32042;50.916;2.926;2023-04-24T05:11:25;24.20;;;14.63;;
46318;SDS011;32042;50.916;2.926;2023-04-24T05:13:51;25.63;;;14.47;;
46318;SDS011;32042;50.916;2.926;2023-04-24T05:16:17;25.03;;;16.20;;
46318;SDS011;32042;50.916;2.926;2023-04-24T05:18:42;23.60;;;15.07;;
46318;SDS011;32042;50.916;2.926;2023-04-24T05:21:08;22.63;;;13.83;;
46318;SDS011;32042;50.916;2.926;2023-04-24T05:23:34;26.40;;;15.57;;
46318;SDS011;32042;50.916;2.926;2023-04-24T05:26:00;27.97;;;14.53;;
46318;SDS011;32042;50.916;2.926;2023-04-24T05:28:25;25.67;;;14.63;;
46318;SDS011;32042;50.916;2.926;2023-04-24T05:30:54;24.57;;;14.83;;
46318;SDS011;32042;50.916;2.926;2023-04-24T05:33:21;21.93;;;14.50;;
46318;SDS011;32042;50.916;2.926;2023-04-24T05:35:47;25.20;;;16.97;;
46318;SDS011;32042;50.916;2.926;2023-04-24T05:38:13;29.43;;;20.23;;
46318;SDS011;32042;50.916;2.926;2023-04-24T05:40:42;27.53;;;16.67;;
46318;SDS011;32042;50.916;2.926;2023-04-24T05:43:08;24.73;;;17.50;;
46318;SDS011;32042;50.916;2.926;2023-04-24T05:45:34;21.97;;;14.40;;
46318;SDS011;32042;50.916;2.926;2023-04-24T05:48:01;20.57;;;12.90;;
46318;SDS011;32042;50.916;2.926;2023-04-24T05:50:27;24.30;;;13.50;;
46318;SDS011;32042;50.916;2.926;2023-04-24T05:52:53;19.23;;;14.07;;
46318;SDS011;32042;50.916;2.926;2023-04-24T05:55:19;20.60;;;12.63;;
46318;SDS011;32042;50.916;2.926;2023-04-24T05:57:45;22.17;;;12.73;;
46318;SDS011;32042;50.916;2.926;2023-04-24T06:00:11;24.27;;;13.07;;
46318;SDS011;32042;50.916;2.926;2023-04-24T06:02:38;17.47;;;11.70;;
46318;SDS011;32042;50.916;2.926;2023-04-24T06:05:04;19.47;;;11.63;;
46318;SDS011;32042;50.916;2.926;2023-04-24T06:07:30;17.33;;;10.13;;
46318;SDS011;32042;50.916;2.926;2023-04-24T06:09:56;18.93;;;10.13;;
46318;SDS011;32042;50.916;2.926;2023-04-24T06:12:22;12.70;;;9.23;;
46318;SDS011;32042;50.916;2.926;2023-04-24T06:14:48;16.10;;;9.17;;
46318;SDS011;32042;50.916;2.926;2023-04-24T06:17:14;16.23;;;8.47;;
46318;SDS011;32042;50.916;2.926;2023-04-24T06:19:40;15.93;;;8.77;;
46318;SDS011;32042;50.916;2.926;2023-04-24T06:22:06;15.43;;;7.87;;
46318;SDS011;32042;50.916;2.926;2023-04-24T06:24:31;12.20;;;7.97;;
46318;SDS011;32042;50.916;2.926;2023-04-24T06:26:59;12.20;;;7.27;;
46318;SDS011;32042;50.916;2.926;2023-04-24T06:29:26;12.60;;;7.73;;
46318;SDS011;32042;50.916;2.926;2023-04-24T06:31:52;17.17;;;7.30;;
46318;SDS011;32042;50.916;2.926;2023-04-24T06:34:18;14.53;;;7.93;;
46318;SDS011;32042;50.916;2.926;2023-04-24T06:36:44;15.67;;;7.93;;
46318;SDS011;32042;50.916;2.926;2023-04-24T06:39:10;14.30;;;7.63;;
46318;SDS011;32042;50.916;2.926;2023-04-24T06:41:35;16.37;;;7.67;;
46318;SDS011;32042;50.916;2.926;2023-04-24T06:44:01;11.80;;;6.57;;
46318;SDS011;32042;50.916;2.926;2023-04-24T06:46:27;12.53;;;7.70;;
46318;SDS011;32042;50.916;2.926;2023-04-24T06:48:53;10.90;;;6.47;;
46318;SDS011;32042;50.916;2.926;2023-04-24T06:51:25;16.20;;;6.73;;
46318;SDS011;32042;50.916;2.926;2023-04-24T06:53:52;13.77;;;6.07;;
46318;SDS011;32042;50.916;2.926;2023-04-24T06:56:18;9.97;;;5.90;;
46318;SDS011;32042;50.916;2.926;2023-04-24T06:58:45;13.37;;;6.20;;
46318;SDS011;32042;50.916;2.926;2023-04-24T07:01:11;14.40;;;6.60;;
46318;SDS011;32042;50.916;2.926;2023-04-24T07:03:37;8.77;;;5.23;;
46318;SDS011;32042;50.916;2.926;2023-04-24T07:06:03;16.83;;;6.43;;
46318;SDS011;32042;50.916;2.926;2023-04-24T07:08:30;15.57;;;6.33;;
46318;SDS011;32042;50.916;2.926;2023-04-24T07:10:56;10.97;;;5.83;;
46318;SDS011;32042;50.916;2.926;2023-04-24T07:13:22;10.07;;;5.77;;
46318;SDS011;32042;50.916;2.926;2023-04-24T07:15:48;10.00;;;5.63;;
46318;SDS011;32042;50.916;2.926;2023-04-24T07:18:19;8.53;;;5.60;;
46318;SDS011;32042;50.916;2.926;2023-04-24T07:20:47;9.97;;;5.53;;
46318;SDS011;32042;50.916;2.926;2023-04-24T07:23:15;18.60;;;6.70;;
46318;SDS011;32042;50.916;2.926;2023-04-24T07:25:41;18.77;;;10.60;;
46318;SDS011;32042;50.916;2.926;2023-04-24T07:28:07;9.07;;;5.97;;
46318;SDS011;32042;50.916;2.926;2023-04-24T07:30:33;12.07;;;6.80;;
46318;SDS011;32042;50.916;2.926;2023-04-24T07:32:59;7.80;;;4.10;;
46318;SDS011;32042;50.916;2.926;2023-04-24T07:35:26;10.97;;;4.70;;
46318;SDS011;32042;50.916;2.926;2023-04-24T07:37:54;9.60;;;3.97;;
46318;SDS011;32042;50.916;2.926;2023-04-24T07:40:21;6.73;;;4.40;;
46318;SDS011;32042;50.916;2.926;2023-04-24T07:42:47;10.83;;;4.67;;
46318;SDS011;32042;50.916;2.926;2023-04-24T07:45:16;6.60;;;4.40;;
46318;SDS011;32042;50.916;2.926;2023-04-24T07:47:42;14.77;;;8.10;;
46318;SDS011;32042;50.916;2.926;2023-04-24T07:50:11;12.67;;;5.03;;
46318;SDS011;32042;50.916;2.926;2023-04-24T07:52:37;9.40;;;5.17;;
46318;SDS011;32042;50.916;2.926;2023-04-24T07:55:03;10.07;;;5.10;;
46318;SDS011;32042;50.916;2.926;2023-04-24T07:57:29;9.67;;;5.20;;
46318;SDS011;32042;50.916;2.926;2023-04-24T07:59:55;11.80;;;5.97;;
46318;SDS011;32042;50.916;2.926;2023-04-24T08:02:21;14.57;;;5.70;;
46318;SDS011;32042;50.916;2.926;2023-04-24T08:04:51;10.60;;;6.30;;
46318;SDS011;32042;50.916;2.926;2023-04-24T08:07:19;16.47;;;8.07;;
46318;SDS011;32042;50.916;2.926;2023-04-24T08:09:45;13.43;;;7.77;;
46318;SDS011;32042;50.916;2.926;2023-04-24T08:12:10;12.57;;;8.77;;
46318;SDS011;32042;50.916;2.926;2023-04-24T08:14:36;14.87;;;8.43;;
46318;SDS011;32042;50.916;2.926;2023-04-24T08:17:02;15.50;;;9.50;;
46318;SDS011;32042;50.916;2.926;2023-04-24T08:19:28;13.67;;;9.47;;
46318;SDS011;32042;50.916;2.926;2023-04-24T08:21:54;16.03;;;9.17;;
46318;SDS011;32042;50.916;2.926;2023-04-24T08:24:20;18.53;;;10.30;;
46318;SDS011;32042;50.916;2.926;2023-04-24T08:26:46;19.83;;;11.63;;
46318;SDS011;32042;50.916;2.926;2023-04-24T08:29:15;16.03;;;9.73;;
46318;SDS011;32042;50.916;2.926;2023-04-24T08:31:41;13.00;;;10.53;;
46318;SDS011;32042;50.916;2.926;2023-04-24T08:34:07;20.43;;;11.83;;
46318;SDS011;32042;50.916;2.926;2023-04-24T08:36:32;17.43;;;10.60;;
46318;SDS011;32042;50.916;2.926;2023-04-24T08:38:58;20.67;;;11.63;;
46318;SDS011;32042;50.916;2.926;2023-04-24T08:41:24;13.90;;;10.77;;
46318;SDS011;32042;50.916;2.926;2023-04-24T08:43:51;15.00;;;11.03;;
46318;SDS011;32042;50.916;2.926;2023-04-24T08:46:18;13.03;;;10.93;;
46318;SDS011;32042;50.916;2.926;2023-04-24T08:48:44;18.33;;;11.63;;
46318;SDS011;32042;50.916;2.926;2023-04-24T08:51:10;25.87;;;11.80;;
46318;SDS011;32042;50.916;2.926;2023-04-24T08:53:37;13.20;;;11.30;;
46318;SDS011;32042;50.916;2.926;2023-04-24T08:56:03;18.33;;;11.30;;
46318;SDS011;32042;50.916;2.926;2023-04-24T08:58:29;20.20;;;11.60;;
46318;SDS011;32042;50.916;2.926;2023-04-24T09:00:57;21.30;;;12.00;;
46318;SDS011;32042;50.916;2.926;2023-04-24T09:03:23;15.13;;;11.70;;
46318;SDS011;32042;50.916;2.926;2023-04-24T09:05:51;16.10;;;11.00;;
46318;SDS011;32042;50.916;2.926;2023-04-24T09:08:19;19.03;;;11.63;;
46318;SDS011;32042;50.916;2.926;2023-04-24T09:10:48;19.47;;;11.93;;
46318;SDS011;32042;50.916;2.926;2023-04-24T09:13:14;15.30;;;11.03;;
46318;SDS011;32042;50.916;2.926;2023-04-24T09:15:40;16.03;;;10.37;;
46318;SDS011;32042;50.916;2.926;2023-04-24T09:18:07;13.87;;;11.37;;
46318;SDS011;32042;50.916;2.926;2023-04-24T09:20:33;15.33;;;11.10;;
46318;SDS011;32042;50.916;2.926;2023-04-24T09:23:01;19.20;;;11.17;;
46318;SDS011;32042;50.916;2.926;2023-04-24T09:25:33;17.87;;;11.10;;
46318;SDS011;32042;50.916;2.926;2023-04-24T09:28:04;13.33;;;11.97;;
46318;SDS011;32042;50.916;2.926;2023-04-24T09:30:33;14.07;;;9.70;;
46318;SDS011;32042;50.916;2.926;2023-04-24T09:33:14;21.43;;;9.80;;
46318;SDS011;32042;50.916;2.926;2023-04-24T09:35:50;12.30;;;8.93;;
46318;SDS011;32042;50.916;2.926;2023-04-24T09:38:16;11.90;;;8.40;;
46318;SDS011;32042;50.916;2.926;2023-04-24T09:40:42;11.73;;;8.07;;
46318;SDS011;32042;50.916;2.926;2023-04-24T09:43:11;13.97;;;8.33;;
46318;SDS011;32042;50.916;2.926;2023-04-24T09:45:38;17.23;;;11.73;;
46318;SDS011;32042;50.916;2.926;2023-04-24T09:48:04;12.53;;;9.70;;
46318;SDS011;32042;50.916;2.926;2023-04-24T09:50:31;14.13;;;8.80;;
46318;SDS011;32042;50.916;2.926;2023-04-24T09:53:01;11.67;;;7.63;;
46318;SDS011;32042;50.916;2.926;2023-04-24T09:55:28;12.03;;;9.33;;
46318;SDS011;32042;50.916;2.926;2023-04-24T09:57:57;9.90;;;8.77;;
46318;SDS011;32042;50.916;2.926;2023-04-24T10:00:29;11.33;;;8.13;;
46318;SDS011;32042;50.916;2.926;2023-04-24T10:05:25;22.53;;;14.47;;
46318;SDS011;32042;50.916;2.926;2023-04-24T10:08:00;9.80;;;6.83;;
46318;SDS011;32042;50.916;2.926;2023-04-24T10:10:30;11.23;;;7.63;;
46318;SDS011;32042;50.916;2.926;2023-04-24T10:12:57;11.87;;;7.13;;
46318;SDS011;32042;50.916;2.926;2023-04-24T10:15:24;10.07;;;7.43;;
46318;SDS011;32042;50.916;2.926;2023-04-24T10:17:51;17.87;;;11.90;;
46318;SDS011;32042;50.916;2.926;2023-04-24T10:20:23;10.10;;;7.57;;
46318;SDS011;32042;50.916;2.926;2023-04-24T10:22:55;8.57;;;7.77;;
46318;SDS011;32042;50.916;2.926;2023-04-24T10:25:23;12.03;;;9.70;;
46318;SDS011;32042;50.916;2.926;2023-04-24T10:27:51;15.57;;;7.83;;
46318;SDS011;32042;50.916;2.926;2023-04-24T10:30:18;8.53;;;7.73;;
46318;SDS011;32042;50.916;2.926;2023-04-24T10:32:45;9.87;;;7.50;;
46318;SDS011;32042;50.916;2.926;2023-04-24T10:35:12;8.57;;;7.53;;
46318;SDS011;32042;50.916;2.926;2023-04-24T10:37:41;8.53;;;7.63;;
46318;SDS011;32042;50.916;2.926;2023-04-24T10:40:08;10.83;;;7.13;;
46318;SDS011;32042;50.916;2.926;2023-04-24T10:42:35;8.03;;;6.77;;
46318;SDS011;32042;50.916;2.926;2023-04-24T10:45:05;7.40;;;6.10;;
46318;SDS011;32042;50.916;2.926;2023-04-24T10:47:40;10.27;;;5.10;;
46318;SDS011;32042;50.916;2.926;2023-04-24T10:50:10;10.17;;;6.10;;
46318;SDS011;32042;50.916;2.926;2023-04-24T10:52:48;7.40;;;5.63;;
46318;SDS011;32042;50.916;2.926;2023-04-24T10:58:14;8.87;;;5.63;;
46318;SDS011;32042;50.916;2.926;2023-04-24T11:00:42;8.57;;;6.40;;
46318;SDS011;32042;50.916;2.926;2023-04-24T11:03:29;7.77;;;5.47;;
46318;SDS011;32042;50.916;2.926;2023-04-24T11:06:00;7.50;;;6.10;;
46318;SDS011;32042;50.916;2.926;2023-04-24T11:08:38;10.47;;;6.53;;
46318;SDS011;32042;50.916;2.926;2023-04-24T11:11:17;9.70;;;5.70;;
46318;SDS011;32042;50.916;2.926;2023-04-24T11:26:51;6.87;;;5.77;;
46318;SDS011;32042;50.916;2.926;2023-04-24T11:29:19;5.67;;;4.23;;
46318;SDS011;32042;50.916;2.926;2023-04-24T11:31:46;10.00;;;6.17;;
46318;SDS011;32042;50.916;2.926;2023-04-24T11:34:16;9.50;;;5.60;;
46318;SDS011;32042;50.916;2.926;2023-04-24T11:36:43;8.13;;;5.47;;
46318;SDS011;32042;50.916;2.926;2023-04-24T11:39:13;6.37;;;5.00;;
46318;SDS011;32042;50.916;2.926;2023-04-24T11:41:40;6.53;;;5.20;;
46318;SDS011;32042;50.916;2.926;2023-04-24T11:44:06;8.87;;;5.93;;
46318;SDS011;32042;50.916;2.926;2023-04-24T11:46:32;6.63;;;6.00;;
46318;SDS011;32042;50.916;2.926;2023-04-24T11:48:58;12.60;;;9.00;;
46318;SDS011;32042;50.916;2.926;2023-04-24T11:51:26;12.17;;;6.83;;
46318;SDS011;32042;50.916;2.926;2023-04-24T11:53:55;8.43;;;5.37;;
46318;SDS011;32042;50.916;2.926;2023-04-24T11:56:22;8.27;;;5.50;;
46318;SDS011;32042;50.916;2.926;2023-04-24T11:58:48;6.10;;;4.90;;
46318;SDS011;32042;50.916;2.926;2023-04-24T12:01:16;6.67;;;5.03;;
46318;SDS011;32042;50.916;2.926;2023-04-24T12:03:46;6.60;;;4.90;;
46318;SDS011;32042;50.916;2.926;2023-04-24T12:06:13;6.90;;;5.17;;
46318;SDS011;32042;50.916;2.926;2023-04-24T12:08:38;6.57;;;4.97;;
46318;SDS011;32042;50.916;2.926;2023-04-24T12:11:05;8.00;;;4.93;;
46318;SDS011;32042;50.916;2.926;2023-04-24T12:13:32;7.57;;;5.17;;
46318;SDS011;32042;50.916;2.926;2023-04-24T12:15:59;7.93;;;3.80;;
46318;SDS011;32042;50.916;2.926;2023-04-24T12:18:28;9.20;;;5.57;;
46318;SDS011;32042;50.916;2.926;2023-04-24T12:20:53;7.17;;;4.07;;
46318;SDS011;32042;50.916;2.926;2023-04-24T12:23:35;3.53;;;3.00;;
46318;SDS011;32042;50.916;2.926;2023-04-24T12:26:03;3.87;;;3.20;;
46318;SDS011;32042;50.916;2.926;2023-04-24T12:28:36;4.10;;;2.97;;
46318;SDS011;32042;50.916;2.926;2023-04-24T12:31:02;5.60;;;3.60;;
46318;SDS011;32042;50.916;2.926;2023-04-24T12:33:31;7.50;;;4.80;;
46318;SDS011;32042;50.916;2.926;2023-04-24T12:35:58;8.30;;;3.70;;
46318;SDS011;32042;50.916;2.926;2023-04-24T12:38:25;5.87;;;3.40;;
46318;SDS011;32042;50.916;2.926;2023-04-24T12:41:05;5.80;;;3.90;;
46318;SDS011;32042;50.916;2.926;2023-04-24T12:43:32;6.47;;;4.60;;
46318;SDS011;32042;50.916;2.926;2023-04-24T12:45:59;5.37;;;3.70;;
46318;SDS011;32042;50.916;2.926;2023-04-24T12:48:25;5.30;;;3.67;;
46318;SDS011;32042;50.916;2.926;2023-04-24T12:50:51;3.80;;;3.50;;
46318;SDS011;32042;50.916;2.926;2023-04-24T12:53:18;5.40;;;3.80;;
46318;SDS011;32042;50.916;2.926;2023-04-24T12:55:43;5.93;;;4.47;;
46318;SDS011;32042;50.916;2.926;2023-04-24T12:58:10;5.67;;;3.70;;
46318;SDS011;32042;50.916;2.926;2023-04-24T13:00:36;6.40;;;3.30;;
46318;SDS011;32042;50.916;2.926;2023-04-24T13:03:03;4.83;;;3.57;;
46318;SDS011;32042;50.916;2.926;2023-04-24T13:05:29;4.17;;;3.50;;
46318;SDS011;32042;50.916;2.926;2023-04-24T13:07:55;7.90;;;5.10;;
46318;SDS011;32042;50.916;2.926;2023-04-24T13:10:22;5.27;;;4.10;;
46318;SDS011;32042;50.916;2.926;2023-04-24T13:12:48;4.87;;;3.80;;
46318;SDS011;32042;50.916;2.926;2023-04-24T13:15:14;5.87;;;4.03;;
46318;SDS011;32042;50.916;2.926;2023-04-24T13:17:40;3.77;;;3.07;;
46318;SDS011;32042;50.916;2.926;2023-04-24T13:20:06;4.30;;;3.50;;
46318;SDS011;32042;50.916;2.926;2023-04-24T13:22:32;5.13;;;4.03;;
46318;SDS011;32042;50.916;2.926;2023-04-24T13:24:58;7.20;;;3.53;;
46318;SDS011;32042;50.916;2.926;2023-04-24T13:27:24;6.43;;;4.10;;
46318;SDS011;32042;50.916;2.926;2023-04-24T13:29:50;4.23;;;3.60;;
46318;SDS011;32042;50.916;2.926;2023-04-24T13:32:16;5.23;;;4.40;;
46318;SDS011;32042;50.916;2.926;2023-04-24T13:34:42;6.27;;;3.97;;
46318;SDS011;32042;50.916;2.926;2023-04-24T13:37:08;7.40;;;3.73;;
46318;SDS011;32042;50.916;2.926;2023-04-24T13:39:34;3.93;;;3.57;;
46318;SDS011;32042;50.916;2.926;2023-04-24T13:42:00;6.87;;;4.17;;
46318;SDS011;32042;50.916;2.926;2023-04-24T13:44:26;6.33;;;4.23;;
46318;SDS011;32042;50.916;2.926;2023-04-24T13:46:52;6.63;;;5.20;;
46318;SDS011;32042;50.916;2.926;2023-04-24T13:49:21;4.70;;;3.87;;
46318;SDS011;32042;50.916;2.926;2023-04-24T13:51:50;5.72;;;4.50;;
46318;SDS011;32042;50.916;2.926;2023-04-24T13:54:16;5.37;;;3.20;;
46318;SDS011;32042;50.916;2.926;2023-04-24T13:56:42;5.23;;;3.40;;
46318;SDS011;32042;50.916;2.926;2023-04-24T13:59:07;6.20;;;3.90;;
46318;SDS011;32042;50.916;2.926;2023-04-24T14:01:33;4.83;;;3.60;;
46318;SDS011;32042;50.916;2.926;2023-04-24T14:04:00;4.30;;;3.87;;
46318;SDS011;32042;50.916;2.926;2023-04-24T14:06:25;4.73;;;3.73;;
46318;SDS011;32042;50.916;2.926;2023-04-24T14:08:51;4.90;;;3.60;;
46318;SDS011;32042;50.916;2.926;2023-04-24T14:11:17;5.70;;;3.47;;
46318;SDS011;32042;50.916;2.926;2023-04-24T14:13:44;4.07;;;3.27;;
46318;SDS011;32042;50.916;2.926;2023-04-24T14:16:10;6.13;;;3.93;;
46318;SDS011;32042;50.916;2.926;2023-04-24T14:18:36;6.93;;;4.17;;
46318;SDS011;32042;50.916;2.926;2023-04-24T14:21:04;5.93;;;4.10;;
46318;SDS011;32042;50.916;2.926;2023-04-24T14:23:30;4.33;;;3.57;;
46318;SDS011;32042;50.916;2.926;2023-04-24T14:25:59;3.17;;;2.50;;
46318;SDS011;32042;50.916;2.926;2023-04-24T14:28:25;52.43;;;31.80;;
46318;SDS011;32042;50.916;2.926;2023-04-24T14:30:51;30.63;;;17.90;;
46318;SDS011;32042;50.916;2.926;2023-04-24T14:33:17;12.97;;;7.10;;
46318;SDS011;32042;50.916;2.926;2023-04-24T14:35:43;45.00;;;17.33;;
46318;SDS011;32042;50.916;2.926;2023-04-24T14:38:09;9.40;;;6.20;;
46318;SDS011;32042;50.916;2.926;2023-04-24T14:40:36;3.63;;;3.17;;
46318;SDS011;32042;50.916;2.926;2023-04-24T14:43:02;8.23;;;5.10;;
46318;SDS011;32042;50.916;2.926;2023-04-24T14:45:28;6.57;;;4.27;;
46318;SDS011;32042;50.916;2.926;2023-04-24T14:47:54;8.77;;;5.50;;
46318;SDS011;32042;50.916;2.926;2023-04-24T14:50:21;7.00;;;4.40;;